sensor_id;sensor_type;location;lat;lon;timestamp;P1;durP1;ratioP1;P2;durP2;ratioP2
12476;SDS011;6303;51.504;6.300;2023-05-29T00:00:40;4.30;;;2.20;;
12476;SDS011;6303;51.504;6.300;2023-05-29T00:03:08;2.10;;;1.90;;
12476;SDS011;6303;51.504;6.300;2023-05-29T00:05:36;2.30;;;2.10;;
12476;SDS011;6303;51.504;6.300;2023-05-29T00:08:03;2.45;;;2.10;;
12476;SDS011;6303;51.504;6.300;2023-05-29T00:10:30;1.92;;;1.73;;
12476;SDS011;6303;51.504;6.300;2023-05-29T00:12:57;3.65;;;2.05;;
12476;SDS011;6303;51.504;6.300;2023-05-29T00:15:26;2.42;;;2.20;;
12476;SDS011;6303;51.504;6.300;2023-05-29T00:17:53;2.50;;;2.30;;
12476;SDS011;6303;51.504;6.300;2023-05-29T00:20:21;3.08;;;1.85;;
12476;SDS011;6303;51.504;6.300;2023-05-29T00:22:49;2.40;;;2.20;;
12476;SDS011;6303;51.504;6.300;2023-05-29T00:25:16;2.22;;;2.03;;
12476;SDS011;6303;51.504;6.300;2023-05-29T00:27:43;2.50;;;2.30;;
12476;SDS011;6303;51.504;6.300;2023-05-29T00:30:10;2.00;;;1.90;;
12476;SDS011;6303;51.504;6.300;2023-05-29T00:32:38;2.95;;;2.20;;
12476;SDS011;6303;51.504;6.300;2023-05-29T00:35:07;2.40;;;2.00;;
12476;SDS011;6303;51.504;6.300;2023-05-29T00:37:36;2.33;;;2.13;;
12476;SDS011;6303;51.504;6.300;2023-05-29T00:40:03;2.42;;;2.00;;
12476;SDS011;6303;51.504;6.300;2023-05-29T00:42:32;2.28;;;2.08;;
12476;SDS011;6303;51.504;6.300;2023-05-29T00:44:59;2.08;;;1.88;;
12476;SDS011;6303;51.504;6.300;2023-05-29T00:47:26;2.30;;;2.10;;
12476;SDS011;6303;51.504;6.300;2023-05-29T00:49:54;2.35;;;2.13;;
12476;SDS011;6303;51.504;6.300;2023-05-29T00:52:23;2.90;;;2.30;;
12476;SDS011;6303;51.504;6.300;2023-05-29T00:54:52;2.25;;;2.05;;
12476;SDS011;6303;51.504;6.300;2023-05-29T00:57:21;3.00;;;2.22;;
12476;SDS011;6303;51.504;6.300;2023-05-29T00:59:49;2.35;;;2.15;;
12476;SDS011;6303;51.504;6.300;2023-05-29T01:02:17;2.08;;;1.90;;
12476;SDS011;6303;51.504;6.300;2023-05-29T01:04:45;2.20;;;2.00;;
12476;SDS011;6303;51.504;6.300;2023-05-29T01:07:12;2.50;;;2.03;;
12476;SDS011;6303;51.504;6.300;2023-05-29T01:09:40;2.80;;;2.13;;
12476;SDS011;6303;51.504;6.300;2023-05-29T01:12:14;2.30;;;2.10;;
12476;SDS011;6303;51.504;6.300;2023-05-29T01:14:52;2.67;;;2.38;;
12476;SDS011;6303;51.504;6.300;2023-05-29T01:17:32;2.15;;;2.00;;
12476;SDS011;6303;51.504;6.300;2023-05-29T01:20:08;2.28;;;1.90;;
12476;SDS011;6303;51.504;6.300;2023-05-29T01:22:46;2.40;;;2.20;;
12476;SDS011;6303;51.504;6.300;2023-05-29T01:25:47;2.30;;;2.10;;
12476;SDS011;6303;51.504;6.300;2023-05-29T01:28:25;2.88;;;2.22;;
12476;SDS011;6303;51.504;6.300;2023-05-29T01:30:55;2.97;;;2.30;;
12476;SDS011;6303;51.504;6.300;2023-05-29T01:33:26;2.17;;;2.08;;
12476;SDS011;6303;51.504;6.300;2023-05-29T01:35:53;2.15;;;2.00;;
12476;SDS011;6303;51.504;6.300;2023-05-29T01:38:21;2.05;;;1.92;;
12476;SDS011;6303;51.504;6.300;2023-05-29T01:40:49;2.88;;;2.25;;
12476;SDS011;6303;51.504;6.300;2023-05-29T01:43:17;2.22;;;2.03;;
12476;SDS011;6303;51.504;6.300;2023-05-29T01:45:46;2.30;;;2.10;;
12476;SDS011;6303;51.504;6.300;2023-05-29T01:48:13;2.35;;;2.10;;
12476;SDS011;6303;51.504;6.300;2023-05-29T01:50:41;2.03;;;1.85;;
12476;SDS011;6303;51.504;6.300;2023-05-29T01:53:10;2.30;;;2.10;;
12476;SDS011;6303;51.504;6.300;2023-05-29T01:55:37;2.10;;;1.90;;
12476;SDS011;6303;51.504;6.300;2023-05-29T01:58:04;1.88;;;1.77;;
12476;SDS011;6303;51.504;6.300;2023-05-29T02:00:32;3.13;;;2.28;;
12476;SDS011;6303;51.504;6.300;2023-05-29T02:03:01;2.42;;;2.00;;
12476;SDS011;6303;51.504;6.300;2023-05-29T02:05:28;2.30;;;2.10;;
12476;SDS011;6303;51.504;6.300;2023-05-29T02:07:55;2.40;;;2.20;;
12476;SDS011;6303;51.504;6.300;2023-05-29T02:10:22;2.55;;;2.10;;
12476;SDS011;6303;51.504;6.300;2023-05-29T02:12:49;2.00;;;1.90;;
12476;SDS011;6303;51.504;6.300;2023-05-29T02:15:16;2.25;;;2.15;;
12476;SDS011;6303;51.504;6.300;2023-05-29T02:17:43;2.30;;;2.10;;
12476;SDS011;6303;51.504;6.300;2023-05-29T02:20:12;2.17;;;1.80;;
12476;SDS011;6303;51.504;6.300;2023-05-29T02:22:39;2.03;;;1.92;;
12476;SDS011;6303;51.504;6.300;2023-05-29T02:25:06;2.10;;;1.95;;
12476;SDS011;6303;51.504;6.300;2023-05-29T02:27:34;2.10;;;1.90;;
12476;SDS011;6303;51.504;6.300;2023-05-29T02:30:01;2.20;;;2.00;;
12476;SDS011;6303;51.504;6.300;2023-05-29T02:32:28;2.33;;;2.13;;
12476;SDS011;6303;51.504;6.300;2023-05-29T02:34:57;2.33;;;2.05;;
12476;SDS011;6303;51.504;6.300;2023-05-29T02:37:25;2.70;;;2.50;;
12476;SDS011;6303;51.504;6.300;2023-05-29T02:39:53;2.40;;;2.10;;
12476;SDS011;6303;51.504;6.300;2023-05-29T02:42:20;2.10;;;2.00;;
12476;SDS011;6303;51.504;6.300;2023-05-29T02:44:47;2.35;;;2.15;;
12476;SDS011;6303;51.504;6.300;2023-05-29T02:47:16;2.67;;;2.25;;
12476;SDS011;6303;51.504;6.300;2023-05-29T02:49:43;2.75;;;2.03;;
12476;SDS011;6303;51.504;6.300;2023-05-29T02:52:10;2.42;;;2.22;;
12476;SDS011;6303;51.504;6.300;2023-05-29T02:54:39;1.90;;;1.80;;
12476;SDS011;6303;51.504;6.300;2023-05-29T02:57:06;2.10;;;2.00;;
12476;SDS011;6303;51.504;6.300;2023-05-29T02:59:33;2.20;;;2.10;;
12476;SDS011;6303;51.504;6.300;2023-05-29T03:02:00;2.28;;;2.08;;
12476;SDS011;6303;51.504;6.300;2023-05-29T03:04:28;2.45;;;2.00;;
12476;SDS011;6303;51.504;6.300;2023-05-29T03:06:55;1.88;;;1.77;;
12476;SDS011;6303;51.504;6.300;2023-05-29T03:09:22;2.13;;;2.00;;
12476;SDS011;6303;51.504;6.300;2023-05-29T03:11:50;2.83;;;2.00;;
12476;SDS011;6303;51.504;6.300;2023-05-29T03:14:18;2.50;;;1.98;;
12476;SDS011;6303;51.504;6.300;2023-05-29T03:16:46;3.08;;;1.98;;
12476;SDS011;6303;51.504;6.300;2023-05-29T03:19:14;2.30;;;2.00;;
12476;SDS011;6303;51.504;6.300;2023-05-29T03:21:43;3.08;;;1.90;;
12476;SDS011;6303;51.504;6.300;2023-05-29T03:24:10;4.32;;;1.90;;
12476;SDS011;6303;51.504;6.300;2023-05-29T03:26:38;2.72;;;1.98;;
12476;SDS011;6303;51.504;6.300;2023-05-29T03:29:07;5.15;;;2.20;;
12476;SDS011;6303;51.504;6.300;2023-05-29T03:31:35;4.68;;;2.40;;
12476;SDS011;6303;51.504;6.300;2023-05-29T03:34:02;4.30;;;2.40;;
12476;SDS011;6303;51.504;6.300;2023-05-29T03:36:40;5.05;;;2.30;;
12476;SDS011;6303;51.504;6.300;2023-05-29T03:39:08;5.68;;;2.33;;
12476;SDS011;6303;51.504;6.300;2023-05-29T03:41:35;4.07;;;2.10;;
12476;SDS011;6303;51.504;6.300;2023-05-29T03:44:04;3.55;;;2.25;;
12476;SDS011;6303;51.504;6.300;2023-05-29T03:46:32;4.78;;;2.00;;
12476;SDS011;6303;51.504;6.300;2023-05-29T03:49:00;5.32;;;2.25;;
12476;SDS011;6303;51.504;6.300;2023-05-29T03:51:29;5.35;;;2.33;;
12476;SDS011;6303;51.504;6.300;2023-05-29T03:53:56;3.92;;;2.00;;
12476;SDS011;6303;51.504;6.300;2023-05-29T03:56:23;3.67;;;2.30;;
12476;SDS011;6303;51.504;6.300;2023-05-29T03:58:51;3.58;;;2.05;;
12476;SDS011;6303;51.504;6.300;2023-05-29T04:01:19;3.30;;;2.13;;
12476;SDS011;6303;51.504;6.300;2023-05-29T04:03:47;2.97;;;1.80;;
12476;SDS011;6303;51.504;6.300;2023-05-29T04:06:15;3.72;;;2.10;;
12476;SDS011;6303;51.504;6.300;2023-05-29T04:08:42;4.32;;;2.20;;
12476;SDS011;6303;51.504;6.300;2023-05-29T04:11:09;5.65;;;2.15;;
12476;SDS011;6303;51.504;6.300;2023-05-29T04:13:37;3.70;;;2.00;;
12476;SDS011;6303;51.504;6.300;2023-05-29T04:16:05;2.10;;;1.90;;
12476;SDS011;6303;51.504;6.300;2023-05-29T04:18:33;3.65;;;1.92;;
12476;SDS011;6303;51.504;6.300;2023-05-29T04:21:01;4.15;;;1.90;;
12476;SDS011;6303;51.504;6.300;2023-05-29T04:23:29;2.40;;;1.80;;
12476;SDS011;6303;51.504;6.300;2023-05-29T04:25:56;3.10;;;1.88;;
12476;SDS011;6303;51.504;6.300;2023-05-29T04:28:25;2.50;;;1.92;;
12476;SDS011;6303;51.504;6.300;2023-05-29T04:30:54;2.50;;;2.10;;
12476;SDS011;6303;51.504;6.300;2023-05-29T04:33:22;2.67;;;1.90;;
12476;SDS011;6303;51.504;6.300;2023-05-29T04:35:50;2.70;;;1.88;;
12476;SDS011;6303;51.504;6.300;2023-05-29T04:38:19;5.35;;;1.90;;
12476;SDS011;6303;51.504;6.300;2023-05-29T04:40:51;2.10;;;1.85;;
12476;SDS011;6303;51.504;6.300;2023-05-29T04:43:22;2.83;;;2.05;;
12476;SDS011;6303;51.504;6.300;2023-05-29T04:46:09;3.70;;;2.10;;
12476;SDS011;6303;51.504;6.300;2023-05-29T04:48:38;3.72;;;2.08;;
12476;SDS011;6303;51.504;6.300;2023-05-29T04:51:06;3.58;;;1.88;;
12476;SDS011;6303;51.504;6.300;2023-05-29T04:53:37;4.38;;;1.90;;
12476;SDS011;6303;51.504;6.300;2023-05-29T04:56:06;2.83;;;1.60;;
12476;SDS011;6303;51.504;6.300;2023-05-29T04:58:34;3.17;;;1.90;;
12476;SDS011;6303;51.504;6.300;2023-05-29T05:01:03;2.80;;;1.83;;
12476;SDS011;6303;51.504;6.300;2023-05-29T05:03:32;3.50;;;1.70;;
12476;SDS011;6303;51.504;6.300;2023-05-29T05:05:59;3.55;;;1.58;;
12476;SDS011;6303;51.504;6.300;2023-05-29T05:08:27;3.10;;;1.95;;
12476;SDS011;6303;51.504;6.300;2023-05-29T05:10:57;2.40;;;1.75;;
12476;SDS011;6303;51.504;6.300;2023-05-29T05:13:24;2.85;;;1.67;;
12476;SDS011;6303;51.504;6.300;2023-05-29T05:15:52;2.97;;;1.70;;
12476;SDS011;6303;51.504;6.300;2023-05-29T05:18:19;2.53;;;1.90;;
12476;SDS011;6303;51.504;6.300;2023-05-29T05:20:55;3.90;;;1.80;;
12476;SDS011;6303;51.504;6.300;2023-05-29T05:23:22;3.28;;;2.00;;
12476;SDS011;6303;51.504;6.300;2023-05-29T05:25:49;2.38;;;1.85;;
12476;SDS011;6303;51.504;6.300;2023-05-29T05:28:18;3.25;;;2.00;;
12476;SDS011;6303;51.504;6.300;2023-05-29T05:30:45;3.00;;;1.60;;
12476;SDS011;6303;51.504;6.300;2023-05-29T05:33:12;2.45;;;1.80;;
12476;SDS011;6303;51.504;6.300;2023-05-29T05:35:40;4.57;;;2.20;;
12476;SDS011;6303;51.504;6.300;2023-05-29T05:38:07;2.88;;;1.70;;
12476;SDS011;6303;51.504;6.300;2023-05-29T05:40:35;2.28;;;1.75;;
12476;SDS011;6303;51.504;6.300;2023-05-29T05:43:12;3.78;;;1.75;;
12476;SDS011;6303;51.504;6.300;2023-05-29T05:45:59;2.40;;;1.70;;
12476;SDS011;6303;51.504;6.300;2023-05-29T05:48:28;3.17;;;1.75;;
12476;SDS011;6303;51.504;6.300;2023-05-29T05:50:55;2.65;;;1.75;;
12476;SDS011;6303;51.504;6.300;2023-05-29T05:53:23;4.03;;;1.73;;
12476;SDS011;6303;51.504;6.300;2023-05-29T05:55:50;2.60;;;1.80;;
12476;SDS011;6303;51.504;6.300;2023-05-29T05:58:17;2.38;;;1.55;;
12476;SDS011;6303;51.504;6.300;2023-05-29T06:00:44;3.08;;;1.67;;
12476;SDS011;6303;51.504;6.300;2023-05-29T06:03:14;3.53;;;1.73;;
12476;SDS011;6303;51.504;6.300;2023-05-29T06:05:55;3.15;;;1.70;;
12476;SDS011;6303;51.504;6.300;2023-05-29T06:08:23;4.35;;;1.70;;
12476;SDS011;6303;51.504;6.300;2023-05-29T06:10:51;2.45;;;1.80;;
12476;SDS011;6303;51.504;6.300;2023-05-29T06:13:19;1.90;;;1.48;;
12476;SDS011;6303;51.504;6.300;2023-05-29T06:15:54;3.03;;;1.60;;
12476;SDS011;6303;51.504;6.300;2023-05-29T06:18:23;2.33;;;1.60;;
12476;SDS011;6303;51.504;6.300;2023-05-29T06:20:51;2.88;;;1.52;;
12476;SDS011;6303;51.504;6.300;2023-05-29T06:23:18;2.22;;;1.40;;
12476;SDS011;6303;51.504;6.300;2023-05-29T06:25:46;2.63;;;1.70;;
12476;SDS011;6303;51.504;6.300;2023-05-29T06:28:13;2.50;;;1.60;;
12476;SDS011;6303;51.504;6.300;2023-05-29T06:30:41;2.13;;;1.50;;
12476;SDS011;6303;51.504;6.300;2023-05-29T06:33:08;3.10;;;1.52;;
12476;SDS011;6303;51.504;6.300;2023-05-29T06:35:39;2.17;;;1.70;;
12476;SDS011;6303;51.504;6.300;2023-05-29T06:38:07;2.92;;;1.70;;
12476;SDS011;6303;51.504;6.300;2023-05-29T06:40:35;4.07;;;1.67;;
12476;SDS011;6303;51.504;6.300;2023-05-29T06:43:03;3.55;;;1.60;;
12476;SDS011;6303;51.504;6.300;2023-05-29T06:45:45;3.15;;;1.70;;
12476;SDS011;6303;51.504;6.300;2023-05-29T06:48:12;3.28;;;1.70;;
12476;SDS011;6303;51.504;6.300;2023-05-29T06:50:42;1.85;;;1.33;;
12476;SDS011;6303;51.504;6.300;2023-05-29T06:53:28;2.00;;;1.42;;
12476;SDS011;6303;51.504;6.300;2023-05-29T06:55:56;2.70;;;1.50;;
12476;SDS011;6303;51.504;6.300;2023-05-29T06:58:23;3.47;;;1.60;;
12476;SDS011;6303;51.504;6.300;2023-05-29T07:00:50;2.53;;;1.38;;
12476;SDS011;6303;51.504;6.300;2023-05-29T07:03:25;3.20;;;1.58;;
12476;SDS011;6303;51.504;6.300;2023-05-29T07:05:54;2.10;;;1.20;;
12476;SDS011;6303;51.504;6.300;2023-05-29T07:08:22;3.50;;;1.55;;
12476;SDS011;6303;51.504;6.300;2023-05-29T07:10:50;2.40;;;1.50;;
12476;SDS011;6303;51.504;6.300;2023-05-29T07:13:19;3.17;;;1.77;;
12476;SDS011;6303;51.504;6.300;2023-05-29T07:15:47;2.67;;;1.40;;
12476;SDS011;6303;51.504;6.300;2023-05-29T07:18:16;1.83;;;1.17;;
12476;SDS011;6303;51.504;6.300;2023-05-29T07:20:43;2.40;;;1.45;;
12476;SDS011;6303;51.504;6.300;2023-05-29T07:23:14;1.90;;;1.25;;
12476;SDS011;6303;51.504;6.300;2023-05-29T07:25:42;3.53;;;1.70;;
12476;SDS011;6303;51.504;6.300;2023-05-29T07:28:09;2.28;;;1.50;;
12476;SDS011;6303;51.504;6.300;2023-05-29T07:30:36;2.95;;;1.58;;
12476;SDS011;6303;51.504;6.300;2023-05-29T07:33:04;2.67;;;1.70;;
12476;SDS011;6303;51.504;6.300;2023-05-29T07:35:31;3.15;;;1.83;;
12476;SDS011;6303;51.504;6.300;2023-05-29T07:38:00;2.42;;;1.60;;
12476;SDS011;6303;51.504;6.300;2023-05-29T07:40:29;2.08;;;1.38;;
12476;SDS011;6303;51.504;6.300;2023-05-29T07:42:56;2.67;;;1.60;;
12476;SDS011;6303;51.504;6.300;2023-05-29T07:45:28;2.28;;;1.52;;
12476;SDS011;6303;51.504;6.300;2023-05-29T07:47:56;2.72;;;1.40;;
12476;SDS011;6303;51.504;6.300;2023-05-29T07:50:23;3.00;;;1.67;;
12476;SDS011;6303;51.504;6.300;2023-05-29T07:52:51;4.18;;;1.90;;
12476;SDS011;6303;51.504;6.300;2023-05-29T07:55:18;4.32;;;1.70;;
12476;SDS011;6303;51.504;6.300;2023-05-29T07:57:47;3.08;;;1.98;;
12476;SDS011;6303;51.504;6.300;2023-05-29T08:00:14;4.82;;;1.88;;
12476;SDS011;6303;51.504;6.300;2023-05-29T08:02:50;4.60;;;2.00;;
12476;SDS011;6303;51.504;6.300;2023-05-29T08:05:29;4.03;;;1.75;;
12476;SDS011;6303;51.504;6.300;2023-05-29T08:08:00;3.72;;;1.73;;
12476;SDS011;6303;51.504;6.300;2023-05-29T08:10:27;6.90;;;2.20;;
12476;SDS011;6303;51.504;6.300;2023-05-29T08:12:55;5.22;;;2.20;;
12476;SDS011;6303;51.504;6.300;2023-05-29T08:15:22;4.97;;;2.00;;
12476;SDS011;6303;51.504;6.300;2023-05-29T08:17:51;4.15;;;2.03;;
12476;SDS011;6303;51.504;6.300;2023-05-29T08:20:18;3.88;;;2.03;;
12476;SDS011;6303;51.504;6.300;2023-05-29T08:22:45;3.78;;;1.80;;
12476;SDS011;6303;51.504;6.300;2023-05-29T08:25:13;3.25;;;1.60;;
12476;SDS011;6303;51.504;6.300;2023-05-29T08:27:40;3.13;;;1.73;;
12476;SDS011;6303;51.504;6.300;2023-05-29T08:30:09;3.90;;;1.67;;
12476;SDS011;6303;51.504;6.300;2023-05-29T08:32:37;3.80;;;1.95;;
12476;SDS011;6303;51.504;6.300;2023-05-29T08:35:04;3.45;;;1.63;;
12476;SDS011;6303;51.504;6.300;2023-05-29T08:37:31;5.43;;;2.03;;
12476;SDS011;6303;51.504;6.300;2023-05-29T08:39:58;3.42;;;1.58;;
12476;SDS011;6303;51.504;6.300;2023-05-29T08:42:26;2.92;;;1.65;;
12476;SDS011;6303;51.504;6.300;2023-05-29T08:45:00;3.55;;;1.98;;
12476;SDS011;6303;51.504;6.300;2023-05-29T08:47:30;2.65;;;1.60;;
12476;SDS011;6303;51.504;6.300;2023-05-29T08:50:00;3.88;;;1.80;;
12476;SDS011;6303;51.504;6.300;2023-05-29T08:52:29;3.95;;;1.60;;
12476;SDS011;6303;51.504;6.300;2023-05-29T08:55:01;3.75;;;1.88;;
12476;SDS011;6303;51.504;6.300;2023-05-29T08:57:28;3.83;;;1.85;;
12476;SDS011;6303;51.504;6.300;2023-05-29T08:59:56;2.95;;;1.65;;
12476;SDS011;6303;51.504;6.300;2023-05-29T09:02:24;3.65;;;1.85;;
12476;SDS011;6303;51.504;6.300;2023-05-29T09:04:53;2.85;;;1.52;;
12476;SDS011;6303;51.504;6.300;2023-05-29T09:07:22;3.83;;;1.83;;
12476;SDS011;6303;51.504;6.300;2023-05-29T09:09:51;3.30;;;1.67;;
12476;SDS011;6303;51.504;6.300;2023-05-29T09:12:18;3.83;;;1.50;;
12476;SDS011;6303;51.504;6.300;2023-05-29T09:14:45;3.05;;;1.45;;
12476;SDS011;6303;51.504;6.300;2023-05-29T09:17:13;3.45;;;1.50;;
12476;SDS011;6303;51.504;6.300;2023-05-29T09:19:41;3.10;;;1.70;;
12476;SDS011;6303;51.504;6.300;2023-05-29T09:22:10;1.75;;;1.42;;
12476;SDS011;6303;51.504;6.300;2023-05-29T09:24:40;2.88;;;1.48;;
12476;SDS011;6303;51.504;6.300;2023-05-29T09:27:08;2.15;;;1.33;;
12476;SDS011;6303;51.504;6.300;2023-05-29T09:29:37;3.03;;;1.50;;
12476;SDS011;6303;51.504;6.300;2023-05-29T09:32:06;3.35;;;1.63;;
12476;SDS011;6303;51.504;6.300;2023-05-29T09:34:34;3.47;;;1.67;;
12476;SDS011;6303;51.504;6.300;2023-05-29T09:37:02;5.13;;;2.08;;
12476;SDS011;6303;51.504;6.300;2023-05-29T09:39:35;3.97;;;1.70;;
12476;SDS011;6303;51.504;6.300;2023-05-29T09:42:11;2.92;;;1.60;;
12476;SDS011;6303;51.504;6.300;2023-05-29T09:44:39;2.42;;;1.60;;
12476;SDS011;6303;51.504;6.300;2023-05-29T09:47:07;3.60;;;1.60;;
12476;SDS011;6303;51.504;6.300;2023-05-29T09:49:34;2.63;;;1.70;;
12476;SDS011;6303;51.504;6.300;2023-05-29T09:52:06;3.45;;;1.90;;
12476;SDS011;6303;51.504;6.300;2023-05-29T09:54:36;2.85;;;1.60;;
12476;SDS011;6303;51.504;6.300;2023-05-29T09:57:03;2.53;;;1.50;;
12476;SDS011;6303;51.504;6.300;2023-05-29T09:59:32;2.58;;;1.60;;
12476;SDS011;6303;51.504;6.300;2023-05-29T10:02:01;3.10;;;1.55;;
12476;SDS011;6303;51.504;6.300;2023-05-29T10:04:30;2.20;;;1.50;;
12476;SDS011;6303;51.504;6.300;2023-05-29T10:06:58;3.13;;;1.50;;
12476;SDS011;6303;51.504;6.300;2023-05-29T10:09:31;2.95;;;1.65;;
12476;SDS011;6303;51.504;6.300;2023-05-29T10:12:03;5.30;;;1.58;;
12476;SDS011;6303;51.504;6.300;2023-05-29T10:14:33;3.08;;;1.42;;
12476;SDS011;6303;51.504;6.300;2023-05-29T10:17:01;2.85;;;1.60;;
12476;SDS011;6303;51.504;6.300;2023-05-29T10:19:33;3.35;;;1.58;;
12476;SDS011;6303;51.504;6.300;2023-05-29T10:22:03;3.40;;;1.60;;
12476;SDS011;6303;51.504;6.300;2023-05-29T10:24:32;2.05;;;1.50;;
12476;SDS011;6303;51.504;6.300;2023-05-29T10:27:02;3.33;;;1.67;;
12476;SDS011;6303;51.504;6.300;2023-05-29T10:29:31;2.45;;;1.83;;
12476;SDS011;6303;51.504;6.300;2023-05-29T10:32:07;3.13;;;1.75;;
12476;SDS011;6303;51.504;6.300;2023-05-29T10:34:46;3.25;;;1.88;;
12476;SDS011;6303;51.504;6.300;2023-05-29T10:37:21;3.50;;;1.52;;
12476;SDS011;6303;51.504;6.300;2023-05-29T10:40:03;2.70;;;1.40;;
12476;SDS011;6303;51.504;6.300;2023-05-29T10:42:42;2.65;;;1.70;;
12476;SDS011;6303;51.504;6.300;2023-05-29T10:45:11;1.98;;;1.42;;
12476;SDS011;6303;51.504;6.300;2023-05-29T10:51:07;3.88;;;1.73;;
12476;SDS011;6303;51.504;6.300;2023-05-29T10:53:35;1.80;;;1.38;;
12476;SDS011;6303;51.504;6.300;2023-05-29T10:56:09;3.22;;;1.63;;
12476;SDS011;6303;51.504;6.300;2023-05-29T10:58:43;1.63;;;1.20;;
12476;SDS011;6303;51.504;6.300;2023-05-29T11:01:10;4.07;;;1.55;;
12476;SDS011;6303;51.504;6.300;2023-05-29T11:03:38;7.82;;;1.80;;
12476;SDS011;6303;51.504;6.300;2023-05-29T11:06:06;5.55;;;1.77;;
12476;SDS011;6303;51.504;6.300;2023-05-29T11:08:44;3.13;;;1.45;;
12476;SDS011;6303;51.504;6.300;2023-05-29T11:11:12;3.95;;;1.48;;
12476;SDS011;6303;51.504;6.300;2023-05-29T11:13:40;2.45;;;1.65;;
12476;SDS011;6303;51.504;6.300;2023-05-29T11:16:12;5.70;;;1.65;;
12476;SDS011;6303;51.504;6.300;2023-05-29T11:18:45;3.20;;;1.40;;
12476;SDS011;6303;51.504;6.300;2023-05-29T11:21:23;3.10;;;1.40;;
12476;SDS011;6303;51.504;6.300;2023-05-29T11:23:57;2.85;;;1.45;;
12476;SDS011;6303;51.504;6.300;2023-05-29T11:26:28;2.80;;;1.35;;
12476;SDS011;6303;51.504;6.300;2023-05-29T11:28:59;3.00;;;1.40;;
12476;SDS011;6303;51.504;6.300;2023-05-29T11:31:28;4.10;;;1.50;;
12476;SDS011;6303;51.504;6.300;2023-05-29T11:34:00;2.58;;;1.60;;
12476;SDS011;6303;51.504;6.300;2023-05-29T11:36:30;3.25;;;1.58;;
12476;SDS011;6303;51.504;6.300;2023-05-29T11:38:57;3.33;;;2.00;;
12476;SDS011;6303;51.504;6.300;2023-05-29T11:41:25;5.95;;;1.90;;
12476;SDS011;6303;51.504;6.300;2023-05-29T11:43:58;2.83;;;1.33;;
12476;SDS011;6303;51.504;6.300;2023-05-29T11:46:28;2.88;;;1.40;;
12476;SDS011;6303;51.504;6.300;2023-05-29T11:48:57;2.08;;;1.50;;
12476;SDS011;6303;51.504;6.300;2023-05-29T11:51:25;4.03;;;1.50;;
12476;SDS011;6303;51.504;6.300;2023-05-29T11:53:52;2.70;;;1.30;;
12476;SDS011;6303;51.504;6.300;2023-05-29T11:56:23;3.17;;;1.50;;
12476;SDS011;6303;51.504;6.300;2023-05-29T11:58:50;1.70;;;1.55;;
12476;SDS011;6303;51.504;6.300;2023-05-29T12:01:20;4.05;;;1.60;;
12476;SDS011;6303;51.504;6.300;2023-05-29T12:03:50;3.40;;;1.60;;
12476;SDS011;6303;51.504;6.300;2023-05-29T12:06:30;4.70;;;1.50;;
12476;SDS011;6303;51.504;6.300;2023-05-29T12:08:58;5.38;;;1.60;;
12476;SDS011;6303;51.504;6.300;2023-05-29T12:11:26;3.85;;;1.60;;
12476;SDS011;6303;51.504;6.300;2023-05-29T12:13:55;2.83;;;1.40;;
12476;SDS011;6303;51.504;6.300;2023-05-29T12:16:23;8.75;;;2.45;;
12476;SDS011;6303;51.504;6.300;2023-05-29T12:18:52;5.50;;;1.95;;
12476;SDS011;6303;51.504;6.300;2023-05-29T12:21:21;3.95;;;1.80;;
12476;SDS011;6303;51.504;6.300;2023-05-29T12:23:51;5.60;;;2.20;;
12476;SDS011;6303;51.504;6.300;2023-05-29T12:26:21;5.70;;;1.83;;
12476;SDS011;6303;51.504;6.300;2023-05-29T12:28:50;3.50;;;1.80;;
12476;SDS011;6303;51.504;6.300;2023-05-29T12:31:26;9.23;;;1.90;;
12476;SDS011;6303;51.504;6.300;2023-05-29T12:33:57;6.95;;;2.17;;
12476;SDS011;6303;51.504;6.300;2023-05-29T12:36:26;6.07;;;2.05;;
12476;SDS011;6303;51.504;6.300;2023-05-29T12:38:53;5.03;;;2.10;;
12476;SDS011;6303;51.504;6.300;2023-05-29T12:41:26;2.85;;;1.63;;
12476;SDS011;6303;51.504;6.300;2023-05-29T12:43:54;3.25;;;1.40;;
12476;SDS011;6303;51.504;6.300;2023-05-29T12:46:22;3.10;;;1.60;;
12476;SDS011;6303;51.504;6.300;2023-05-29T12:48:51;2.28;;;1.40;;
12476;SDS011;6303;51.504;6.300;2023-05-29T12:51:23;2.65;;;1.55;;
12476;SDS011;6303;51.504;6.300;2023-05-29T12:53:51;2.92;;;1.50;;
12476;SDS011;6303;51.504;6.300;2023-05-29T12:56:20;4.70;;;2.40;;
12476;SDS011;6303;51.504;6.300;2023-05-29T12:58:49;4.10;;;1.77;;
12476;SDS011;6303;51.504;6.300;2023-05-29T13:01:16;2.47;;;1.65;;
12476;SDS011;6303;51.504;6.300;2023-05-29T13:03:43;5.10;;;1.58;;
12476;SDS011;6303;51.504;6.300;2023-05-29T13:06:10;5.22;;;1.60;;
12476;SDS011;6303;51.504;6.300;2023-05-29T13:08:39;4.07;;;1.63;;
12476;SDS011;6303;51.504;6.300;2023-05-29T13:11:06;4.32;;;1.70;;
12476;SDS011;6303;51.504;6.300;2023-05-29T13:13:33;5.70;;;1.65;;
12476;SDS011;6303;51.504;6.300;2023-05-29T13:16:01;3.85;;;1.63;;
12476;SDS011;6303;51.504;6.300;2023-05-29T13:18:28;3.45;;;1.45;;
12476;SDS011;6303;51.504;6.300;2023-05-29T13:20:55;2.83;;;1.50;;
12476;SDS011;6303;51.504;6.300;2023-05-29T13:23:22;3.25;;;1.75;;
12476;SDS011;6303;51.504;6.300;2023-05-29T13:25:50;3.45;;;1.60;;
12476;SDS011;6303;51.504;6.300;2023-05-29T13:28:17;4.25;;;1.70;;
12476;SDS011;6303;51.504;6.300;2023-05-29T13:30:45;3.53;;;1.67;;
12476;SDS011;6303;51.504;6.300;2023-05-29T13:33:12;2.05;;;1.35;;
12476;SDS011;6303;51.504;6.300;2023-05-29T13:35:39;2.53;;;1.50;;
12476;SDS011;6303;51.504;6.300;2023-05-29T13:38:06;2.17;;;1.45;;
12476;SDS011;6303;51.504;6.300;2023-05-29T13:40:33;3.15;;;1.40;;
12476;SDS011;6303;51.504;6.300;2023-05-29T13:43:02;4.03;;;1.60;;
12476;SDS011;6303;51.504;6.300;2023-05-29T13:45:29;1.77;;;1.23;;
12476;SDS011;6303;51.504;6.300;2023-05-29T13:47:56;3.63;;;1.75;;
12476;SDS011;6303;51.504;6.300;2023-05-29T13:50:23;5.55;;;1.60;;
12476;SDS011;6303;51.504;6.300;2023-05-29T13:52:51;4.32;;;1.42;;
12476;SDS011;6303;51.504;6.300;2023-05-29T13:55:18;2.42;;;1.50;;
12476;SDS011;6303;51.504;6.300;2023-05-29T13:57:45;2.63;;;1.42;;
12476;SDS011;6303;51.504;6.300;2023-05-29T14:00:15;2.38;;;1.42;;
12476;SDS011;6303;51.504;6.300;2023-05-29T14:02:42;2.92;;;1.40;;
12476;SDS011;6303;51.504;6.300;2023-05-29T14:05:09;3.05;;;1.73;;
12476;SDS011;6303;51.504;6.300;2023-05-29T14:07:37;5.22;;;1.88;;
12476;SDS011;6303;51.504;6.300;2023-05-29T14:10:04;2.50;;;1.40;;
12476;SDS011;6303;51.504;6.300;2023-05-29T14:12:32;3.45;;;1.65;;
12476;SDS011;6303;51.504;6.300;2023-05-29T14:14:59;2.70;;;1.52;;
12476;SDS011;6303;51.504;6.300;2023-05-29T14:17:28;2.70;;;1.55;;
12476;SDS011;6303;51.504;6.300;2023-05-29T14:19:55;3.50;;;1.52;;
12476;SDS011;6303;51.504;6.300;2023-05-29T14:22:22;3.60;;;1.85;;
12476;SDS011;6303;51.504;6.300;2023-05-29T14:24:49;4.90;;;1.98;;
12476;SDS011;6303;51.504;6.300;2023-05-29T14:27:16;3.95;;;1.88;;
12476;SDS011;6303;51.504;6.300;2023-05-29T14:29:43;3.17;;;1.70;;
12476;SDS011;6303;51.504;6.300;2023-05-29T14:32:11;3.33;;;1.58;;
12476;SDS011;6303;51.504;6.300;2023-05-29T14:34:39;4.05;;;1.83;;
12476;SDS011;6303;51.504;6.300;2023-05-29T14:37:06;3.40;;;1.75;;
12476;SDS011;6303;51.504;6.300;2023-05-29T14:39:33;3.30;;;1.75;;
12476;SDS011;6303;51.504;6.300;2023-05-29T14:42:01;2.63;;;1.75;;
12476;SDS011;6303;51.504;6.300;2023-05-29T14:44:28;3.53;;;1.85;;
12476;SDS011;6303;51.504;6.300;2023-05-29T14:46:55;5.20;;;1.70;;
12476;SDS011;6303;51.504;6.300;2023-05-29T14:49:22;3.08;;;1.50;;
12476;SDS011;6303;51.504;6.300;2023-05-29T14:51:51;2.95;;;1.70;;
12476;SDS011;6303;51.504;6.300;2023-05-29T14:54:18;3.15;;;1.85;;
12476;SDS011;6303;51.504;6.300;2023-05-29T14:56:45;3.83;;;1.90;;
12476;SDS011;6303;51.504;6.300;2023-05-29T14:59:12;4.25;;;1.90;;
12476;SDS011;6303;51.504;6.300;2023-05-29T15:01:39;2.97;;;1.70;;
12476;SDS011;6303;51.504;6.300;2023-05-29T15:04:06;6.72;;;2.40;;
12476;SDS011;6303;51.504;6.300;2023-05-29T15:06:33;6.22;;;2.40;;
12476;SDS011;6303;51.504;6.300;2023-05-29T15:09:02;3.50;;;2.10;;
12476;SDS011;6303;51.504;6.300;2023-05-29T15:11:29;4.10;;;2.20;;
12476;SDS011;6303;51.504;6.300;2023-05-29T15:13:56;4.43;;;2.08;;